Time;durP1;ratioP1;P1;durP2;ratioP2;P2;SDS_P1;SDS_P2;PMS_P1;PMS_P2;Temp;Humidity;BMP_temperature;BMP_pressure;BME280_temperature;BME280_humidity;BME280_pressure;Samples;Min_cycle;Max_cycle;Signal;HPM_P1;HPM_P2
2022/06/21 00:01:49;;;;;;;11.25;3.25;;;11.10;99.90;;;;;;5004915;28;20408;-86
2022/06/21 00:04:15;;;;;;;14.20;4.18;;;11.10;99.90;;;;;;5003511;28;20045;-87
2022/06/21 00:06:40;;;;;;;10.55;3.72;;;11.10;99.90;;;;;;4987243;28;20052;-86
2022/06/21 00:09:06;;;;;;;7.60;3.70;;;11.00;99.90;;;;;;5019376;28;20045;-87
2022/06/21 00:11:33;;;;;;;8.27;3.80;;;11.00;99.90;;;;;;5002975;28;20036;-87
2022/06/21 00:13:59;;;;;;;9.43;3.60;;;11.00;99.90;;;;;;5003318;28;20443;-88
2022/06/21 00:16:27;;;;;;;9.75;3.53;;;11.00;99.90;;;;;;5002931;28;20589;-86
2022/06/21 00:18:52;;;;;;;12.73;4.40;;;11.00;99.90;;;;;;5003715;28;20049;-86
2022/06/21 00:21:21;;;;;;;12.82;3.85;;;10.90;99.90;;;;;;5003649;28;20049;-86
2022/06/21 00:23:47;;;;;;;9.73;3.90;;;10.90;99.90;;;;;;5003686;28;20052;-86
2022/06/21 00:26:14;;;;;;;12.40;3.78;;;10.90;99.90;;;;;;5018881;28;20056;-87
2022/06/21 00:28:39;;;;;;;9.50;3.45;;;10.80;99.90;;;;;;5003082;28;20049;-87
2022/06/21 00:31:13;;;;;;;11.15;3.90;;;10.90;99.90;;;;;;5003045;28;20049;-87
2022/06/21 00:33:39;;;;;;;9.63;4.03;;;10.80;99.90;;;;;;5000192;28;20413;-86
2022/06/21 00:36:21;;;;;;;18.42;4.18;;;10.80;99.90;;;;;;5016186;28;20044;-87
2022/06/21 00:38:47;;;;;;;10.38;3.90;;;10.70;99.90;;;;;;4986234;28;20139;-87
2022/06/21 00:41:12;;;;;;;13.65;4.18;;;10.70;99.90;;;;;;4999286;28;20437;-87
2022/06/21 00:43:46;;;;;;;9.18;4.25;;;10.70;99.90;;;;;;4999322;28;20065;-86
2022/06/21 00:46:21;;;;;;;12.57;4.70;;;10.70;99.90;;;;;;4983284;28;20128;-87
2022/06/21 00:48:47;;;;;;;10.27;4.60;;;10.60;99.90;;;;;;5015819;28;20072;-87
2022/06/21 00:51:19;;;;;;;12.82;4.35;;;10.70;99.90;;;;;;5015719;28;20045;-87
2022/06/21 00:53:49;;;;;;;13.13;4.25;;;10.70;99.90;;;;;;4983939;28;20421;-87
2022/06/21 00:56:36;;;;;;;12.95;4.65;;;10.70;99.90;;;;;;4999550;28;20381;-87
2022/06/21 00:59:34;;;;;;;12.40;4.35;;;10.70;99.90;;;;;;4983782;28;20119;-85
2022/06/21 01:02:15;;;;;;;11.63;4.13;;;10.60;99.90;;;;;;4989653;28;20049;-87
2022/06/21 01:04:45;;;;;;;11.85;4.03;;;10.60;99.90;;;;;;5016453;28;20513;-86
2022/06/21 01:07:11;;;;;;;12.40;4.57;;;10.60;99.90;;;;;;4999768;28;20393;-86
2022/06/21 01:09:59;;;;;;;11.27;3.88;;;10.60;99.90;;;;;;4999451;28;20397;-87
2022/06/21 01:12:32;;;;;;;12.95;4.15;;;10.50;99.90;;;;;;5017209;28;20088;-87
2022/06/21 01:14:59;;;;;;;10.35;4.20;;;10.50;99.90;;;;;;5015393;28;20583;-87
2022/06/21 01:17:25;;;;;;;14.43;4.55;;;10.50;99.90;;;;;;4998294;28;20133;-86
2022/06/21 01:20:00;;;;;;;14.30;4.85;;;10.50;99.90;;;;;;4982650;28;20456;-86
2022/06/21 01:22:54;;;;;;;11.52;4.30;;;10.40;99.90;;;;;;4999315;28;20186;-86
2022/06/21 01:25:44;;;;;;;13.40;4.45;;;10.40;99.90;;;;;;5031467;28;20045;-87
2022/06/21 01:28:10;;;;;;;13.25;4.45;;;10.40;99.90;;;;;;5017442;28;20052;-87
2022/06/21 01:30:35;;;;;;;11.07;4.55;;;10.40;99.90;;;;;;4981956;28;20049;-86
2022/06/21 01:33:01;;;;;;;15.10;4.95;;;10.80;99.90;;;;;;4998154;28;20136;-86
2022/06/21 01:35:42;;;;;;;13.00;5.07;;;10.30;99.90;;;;;;4998822;28;20057;-86
2022/06/21 01:38:16;;;;;;;11.95;5.82;;;10.30;99.90;;;;;;4999404;28;20053;-89
2022/06/21 01:40:43;;;;;;;;;;;10.30;99.90;;;;;;4983653;28;20045;-86
2022/06/21 01:43:11;;;;;;;12.20;5.00;;;10.30;99.90;;;;;;5014316;28;20019;-87
2022/06/21 01:45:42;;;;;;;10.85;5.07;;;10.20;99.90;;;;;;5014983;28;20091;-86
2022/06/21 01:48:15;;;;;;;12.25;5.30;;;10.20;99.90;;;;;;4998769;28;20054;-86
2022/06/21 01:50:41;;;;;;;14.13;5.32;;;10.10;99.90;;;;;;5015015;28;20503;-85
2022/06/21 01:53:07;;;;;;;14.07;5.53;;;10.10;99.90;;;;;;4981810;28;20076;-86
2022/06/21 01:55:35;;;;;;;10.30;4.95;;;10.80;99.90;;;;;;4997965;28;20085;-86
2022/06/21 01:58:01;;;;;;;13.63;5.57;;;10.00;99.90;;;;;;5031002;28;20444;-86
2022/06/21 02:00:28;;;;;;;12.23;5.50;;;10.00;99.90;;;;;;4998320;28;20053;-85
2022/06/21 02:02:56;;;;;;;12.60;5.63;;;10.00;99.90;;;;;;4982186;28;20051;-86
2022/06/21 02:05:31;;;;;;;13.73;5.65;;;10.00;99.90;;;;;;4982114;28;20065;-87
2022/06/21 02:07:59;;;;;;;15.40;6.13;;;8.40;99.90;;;;;;4983768;28;20140;-87
2022/06/21 02:10:30;;;;;;;14.13;5.90;;;10.00;99.90;;;;;;4997818;28;20049;-86
2022/06/21 02:13:00;;;;;;;11.07;5.30;;;10.00;99.90;;;;;;5014251;28;20052;-86
2022/06/21 02:15:38;;;;;;;13.07;6.68;;;10.10;99.90;;;;;;5014533;28;20060;-87
2022/06/21 02:18:06;;;;;;;13.30;5.82;;;10.00;99.90;;;;;;4997220;28;20053;-86
2022/06/21 02:20:36;;;;;;;12.35;5.80;;;10.00;99.90;;;;;;4998502;28;20049;-86
2022/06/21 02:23:02;;;;;;;16.48;6.53;;;9.90;99.90;;;;;;5014956;28;20126;-87
2022/06/21 02:25:28;;;;;;;15.73;6.32;;;9.90;99.90;;;;;;5013983;28;20485;-86
2022/06/21 02:27:59;;;;;;;15.35;6.63;;;9.90;99.90;;;;;;4997903;28;20049;-86
2022/06/21 02:30:25;;;;;;;14.57;7.00;;;9.90;99.90;;;;;;4997884;28;20050;-86
2022/06/21 02:32:54;;;;;;;13.65;6.53;;;9.90;99.90;;;;;;5017804;28;20072;-86
2022/06/21 02:35:35;;;;;;;13.05;6.13;;;9.80;99.90;;;;;;5017385;28;20045;-86
2022/06/21 02:38:03;;;;;;;13.93;6.32;;;9.80;99.90;;;;;;5034415;28;20063;-85
2022/06/21 02:40:32;;;;;;;19.02;6.57;;;9.80;99.90;;;;;;5001095;28;20182;-85
2022/06/21 02:43:05;;;;;;;10.25;5.78;;;10.00;99.90;;;;;;5001299;28;20080;-86
2022/06/21 02:45:47;;;;;;;17.05;6.70;;;9.80;99.90;;;;;;5001230;28;20430;-87
2022/06/21 02:48:17;;;;;;;13.77;6.13;;;9.90;99.90;;;;;;5019952;28;20535;-85
2022/06/21 02:50:48;;;;;;;16.02;7.53;;;9.90;99.90;;;;;;5001939;28;20103;-87
2022/06/21 02:53:39;;;;;;;11.55;6.68;;;9.80;99.90;;;;;;5001963;28;20117;-86
2022/06/21 02:56:08;;;;;;;14.73;6.65;;;9.80;99.90;;;;;;5035172;28;20063;-86
2022/06/21 02:58:40;;;;;;;10.70;6.43;;;9.90;99.90;;;;;;5001684;28;20045;-85
2022/06/21 03:01:13;;;;;;;12.02;6.45;;;9.90;99.90;;;;;;5003015;28;20100;-86
2022/06/21 03:03:39;;;;;;;16.02;6.78;;;9.90;99.90;;;;;;5005554;28;20505;-86
2022/06/21 03:06:06;;;;;;;15.63;6.57;;;9.90;99.90;;;;;;5006510;28;20045;-88
2022/06/21 03:08:32;;;;;;;13.98;6.47;;;9.90;99.90;;;;;;5023581;28;20094;-86
2022/06/21 03:10:58;;;;;;;12.23;6.75;;;10.10;99.90;;;;;;5008280;28;20060;-87
2022/06/21 03:13:29;;;;;;;13.52;5.90;;;9.90;99.90;;;;;;5008544;28;20048;-86
2022/06/21 03:15:59;;;;;;;16.00;6.03;;;9.80;99.90;;;;;;5010751;28;20053;-86
2022/06/21 03:18:28;;;;;;;11.30;5.82;;;10.10;99.90;;;;;;4995811;28;20211;-86
2022/06/21 03:20:54;;;;;;;11.10;6.78;;;9.80;99.90;;;;;;5027899;28;20091;-87
2022/06/21 03:23:20;;;;;;;13.00;6.60;;;9.80;99.90;;;;;;5011581;28;20493;-87
2022/06/21 03:25:48;;;;;;;15.10;7.80;;;10.70;99.90;;;;;;5011452;28;20091;-87
2022/06/21 03:28:19;;;;;;;13.15;6.78;;;9.50;99.90;;;;;;5044546;28;20123;-86
2022/06/21 03:30:45;;;;;;;12.10;5.97;;;9.70;99.90;;;;;;5012208;28;20052;-86
2022/06/21 03:33:11;;;;;;;14.52;6.95;;;9.70;99.90;;;;;;5027291;28;20057;-87
2022/06/21 03:35:36;;;;;;;14.48;6.10;;;9.80;99.90;;;;;;4993776;28;20053;-86
2022/06/21 03:38:02;;;;;;;12.70;6.18;;;9.80;99.90;;;;;;5011531;28;20041;-85
2022/06/21 03:43:33;;;;;;;14.55;6.38;;;9.80;99.90;;;;;;5030216;28;20087;-86
2022/06/21 03:46:00;;;;;;;10.30;6.30;;;9.90;99.90;;;;;;5013703;28;20076;-87
2022/06/21 03:48:33;;;;;;;12.82;6.00;;;10.00;99.90;;;;;;5007592;28;20056;-85
2022/06/21 03:51:03;;;;;;;11.25;6.00;;;10.20;99.90;;;;;;5008081;28;20051;-86
2022/06/21 03:53:33;;;;;;;10.13;5.90;;;10.30;99.90;;;;;;5006775;28;20053;-87
2022/06/21 03:55:59;;;;;;;12.45;5.35;;;10.40;99.90;;;;;;5005004;28;20053;-87
2022/06/21 03:58:28;;;;;;;12.68;5.63;;;10.50;99.90;;;;;;5035073;28;20056;-89
2022/06/21 04:01:32;;;;;;;13.20;4.93;;;10.60;99.90;;;;;;5033462;28;20060;-86
2022/06/21 04:04:05;;;;;;;12.10;5.22;;;10.60;99.90;;;;;;4984019;28;20140;-88
2022/06/21 04:06:40;;;;;;;8.82;5.72;;;10.70;99.90;;;;;;5016434;28;20080;-86
2022/06/21 04:09:11;;;;;;;11.07;5.25;;;10.70;99.90;;;;;;5000819;28;20099;-86
2022/06/21 04:11:45;;;;;;;10.43;6.13;;;10.80;99.90;;;;;;5016208;28;20077;-87
2022/06/21 04:14:31;;;;;;;7.60;5.43;;;10.80;99.90;;;;;;5016755;28;20076;-86
2022/06/21 04:17:13;;;;;;;10.68;5.40;;;10.90;99.90;;;;;;5016063;28;20049;-87
2022/06/21 04:19:52;;;;;;;12.60;5.10;;;11.00;99.90;;;;;;5001573;28;20132;-87
2022/06/21 04:22:56;;;;;;;13.73;5.40;;;11.00;99.90;;;;;;5001389;28;20057;-87
2022/06/21 04:26:06;;;;;;;11.33;5.47;;;11.00;99.90;;;;;;4987156;28;20073;-86
2022/06/21 04:28:37;;;;;;;7.95;5.47;;;10.90;99.90;;;;;;5024757;28;20288;-86
2022/06/21 04:31:12;;;;;;;11.50;5.72;;;11.00;99.90;;;;;;5017102;28;20121;-85
2022/06/21 04:33:48;;;;;;;11.02;5.95;;;11.00;99.90;;;;;;5015742;28;20057;-86
2022/06/21 04:36:22;;;;;;;12.02;5.57;;;11.10;99.90;;;;;;5001105;28;20045;-86
2022/06/21 04:38:57;;;;;;;9.55;5.97;;;11.10;99.90;;;;;;4984318;28;20115;-86
2022/06/21 04:41:30;;;;;;;10.23;5.10;;;11.60;99.90;;;;;;4983419;28;20059;-86
2022/06/21 04:44:14;;;;;;;9.15;4.15;;;12.40;99.90;;;;;;5015685;28;20535;-86
2022/06/21 04:46:47;;;;;;;7.93;3.67;;;13.60;99.90;;;;;;4983794;28;20053;-87
2022/06/21 04:49:24;;;;;;;7.70;3.22;;;14.60;99.90;;;;;;4983334;28;20053;-86
2022/06/21 04:52:01;;;;;;;6.35;3.40;;;15.00;99.90;;;;;;4998780;28;20046;-87
2022/06/21 04:54:29;;;;;;;6.18;3.58;;;15.70;99.90;;;;;;4984841;28;20136;-85
2022/06/21 04:57:08;;;;;;;6.25;3.10;;;16.10;99.90;;;;;;4999522;28;20072;-87
2022/06/21 04:59:37;;;;;;;7.32;3.00;;;16.50;99.90;;;;;;4983122;28;20053;-87
2022/06/21 05:02:03;;;;;;;4.63;2.85;;;16.50;99.90;;;;;;4998984;28;20053;-86
2022/06/21 05:04:36;;;;;;;6.85;3.20;;;16.70;99.90;;;;;;4999443;28;20061;-86
2022/06/21 05:07:06;;;;;;;8.20;2.75;;;17.10;99.90;;;;;;4983882;28;20067;-86
2022/06/21 05:09:32;;;;;;;4.95;2.85;;;17.30;99.90;;;;;;4982949;28;20115;-85
2022/06/21 05:12:05;;;;;;;6.60;3.10;;;17.30;99.90;;;;;;4983048;28;20037;-87
2022/06/21 05:14:33;;;;;;;4.28;2.70;;;17.00;99.90;;;;;;4999656;28;20072;-85
2022/06/21 05:16:59;;;;;;;7.35;2.90;;;16.50;99.90;;;;;;4998795;28;20135;-88
2022/06/21 05:19:36;;;;;;;9.57;3.70;;;16.30;99.90;;;;;;5015399;28;20053;-87
2022/06/21 05:22:12;;;;;;;7.28;3.60;;;16.00;99.90;;;;;;4983970;28;20378;-85
2022/06/21 05:24:38;;;;;;;6.05;3.30;;;15.60;99.90;;;;;;4998926;28;20046;-85
2022/06/21 05:27:09;;;;;;;5.45;3.40;;;15.30;99.90;;;;;;4998704;28;20041;-86
2022/06/21 05:29:41;;;;;;;9.27;4.13;;;15.10;99.90;;;;;;4997692;28;20448;-90
2022/06/21 05:32:16;;;;;;;6.10;3.03;;;15.00;99.90;;;;;;4998520;28;20144;-86
2022/06/21 05:34:45;;;;;;;13.20;3.97;;;14.90;99.90;;;;;;5013868;28;20080;-87
2022/06/21 05:37:28;;;;;;;9.25;4.00;;;14.80;99.90;;;;;;4998590;28;20404;-87
2022/06/21 05:39:53;;;;;;;5.80;3.50;;;14.70;99.90;;;;;;5014332;28;20042;-87
2022/06/21 05:42:20;;;;;;;9.07;3.78;;;14.60;99.90;;;;;;5004272;28;20045;-93
2022/06/21 05:44:50;;;;;;;8.20;3.83;;;14.60;99.90;;;;;;4993034;28;20049;-92
2022/06/21 05:47:18;;;;;;;7.68;3.97;;;15.30;99.90;;;;;;5037929;28;20551;-92
2022/06/21 05:49:44;;;;;;;6.35;3.60;;;15.30;99.90;;;;;;5022409;28;20440;-89
2022/06/21 05:52:16;;;;;;;5.97;3.40;;;16.00;99.90;;;;;;5023127;28;20037;-91
2022/06/21 05:54:54;;;;;;;6.35;3.10;;;16.30;99.90;;;;;;5002232;28;20128;-90
2022/06/21 05:57:21;;;;;;;6.15;3.10;;;16.90;99.90;;;;;;5000370;28;20056;-90
2022/06/21 05:59:47;;;;;;;3.92;2.50;;;17.30;99.90;;;;;;5001211;28;20396;-91
2022/06/21 06:02:21;;;;;;;4.72;2.60;;;18.20;99.90;;;;;;5025176;28;20049;-91
2022/06/21 06:05:14;;;;;;;7.55;3.03;;;18.90;99.90;;;;;;4991370;28;20077;-92
2022/06/21 06:07:46;;;;;;;5.03;3.00;;;19.80;99.90;;;;;;5014762;28;20049;-91
2022/06/21 06:10:11;;;;;;;4.25;2.60;;;20.40;99.90;;;;;;5022547;28;20385;-90
2022/06/21 06:12:44;;;;;;;6.25;2.25;;;21.10;99.90;;;;;;5005843;28;20071;-91
2022/06/21 06:15:22;;;;;;;5.20;2.20;;;20.80;99.90;;;;;;4996061;28;20048;-91
2022/06/21 06:17:54;;;;;;;6.28;2.13;;;20.50;99.90;;;;;;5019619;28;20111;-87
2022/06/21 06:20:22;;;;;;;6.03;1.90;;;20.20;99.90;;;;;;4999592;28;20056;-88
2022/06/21 06:23:02;;;;;;;3.28;1.92;;;21.10;99.90;;;;;;4997442;28;20049;-89
2022/06/21 06:25:43;;;;;;;4.60;2.00;;;21.10;99.90;;;;;;4997917;28;20052;-88
2022/06/21 06:28:14;;;;;;;6.70;1.80;;;20.50;99.90;;;;;;5013494;28;20049;-87
2022/06/21 06:31:15;;;;;;;3.88;1.95;;;20.80;99.90;;;;;;5030322;28;20119;-89
2022/06/21 06:33:42;;;;;;;6.25;1.73;;;21.00;99.90;;;;;;5038476;28;20088;-92
2022/06/21 06:36:10;;;;;;;7.30;1.90;;;20.90;99.90;;;;;;5024633;28;20045;-91
2022/06/21 06:38:36;;;;;;;7.57;2.65;;;21.80;99.90;;;;;;5008187;28;20107;-91
2022/06/21 06:41:42;;;;;;;6.88;2.10;;;21.30;99.90;;;;;;5022434;28;20041;-92
2022/06/21 06:44:14;;;;;;;6.10;2.15;;;21.60;99.90;;;;;;5017298;28;20055;-90
2022/06/21 06:46:43;;;;;;;5.43;2.17;;;22.40;99.90;;;;;;5018139;28;20036;-90
2022/06/21 06:49:22;;;;;;;3.17;1.85;;;22.20;99.90;;;;;;5017730;28;20111;-90
2022/06/21 06:52:02;;;;;;;6.00;1.90;;;23.50;99.90;;;;;;5034647;28;20496;-90
2022/06/21 06:54:44;;;;;;;6.13;2.20;;;23.90;99.90;;;;;;5034510;28;20570;-90
2022/06/21 06:57:12;;;;;;;5.70;1.83;;;22.60;99.90;;;;;;5018045;28;20041;-91
2022/06/21 07:00:00;;;;;;;7.93;2.10;;;22.90;99.90;;;;;;5035128;28;20128;-88
2022/06/21 07:02:40;;;;;;;4.93;2.15;;;22.70;99.90;;;;;;5049700;28;20041;-89
2022/06/21 07:05:25;;;;;;;5.90;1.60;;;21.90;99.90;;;;;;5020667;28;20821;-89
2022/06/21 07:07:56;;;;;;;7.93;2.03;;;22.90;99.90;;;;;;5056007;28;20122;-88
2022/06/21 07:10:26;;;;;;;5.25;1.55;;;23.20;99.90;;;;;;5022396;28;20056;-89
2022/06/21 07:12:52;;;;;;;4.88;1.77;;;23.90;99.90;;;;;;5021371;28;20132;-91
2022/06/21 07:15:19;;;;;;;6.13;1.90;;;22.80;99.90;;;;;;5022057;28;20562;-89
2022/06/21 07:17:55;;;;;;;4.75;2.08;;;22.80;99.90;;;;;;5021859;28;20057;-90
2022/06/21 07:20:36;;;;;;;4.72;1.98;;;22.90;99.90;;;;;;5023833;28;20053;-90
2022/06/21 07:23:02;;;;;;;5.82;1.90;;;23.70;99.90;;;;;;5024655;28;20049;-90
2022/06/21 07:25:40;;;;;;;6.00;2.10;;;24.10;99.90;;;;;;5022968;28;20075;-91
2022/06/21 07:28:25;;;;;;;6.47;1.92;;;23.10;99.90;;;;;;5022990;28;20047;-89
2022/06/21 07:30:51;;;;;;;5.82;1.63;;;22.40;99.90;;;;;;5056219;28;20052;-89
2022/06/21 07:33:42;;;;;;;5.10;1.80;;;22.80;99.90;;;;;;5036050;28;20057;-88
2022/06/21 07:36:33;;;;;;;4.25;1.48;;;22.80;99.90;;;;;;5008073;28;20099;-88
2022/06/21 07:39:06;;;;;;;3.80;1.42;;;22.20;99.90;;;;;;5002431;28;20084;-88
2022/06/21 07:41:55;;;;;;;4.35;1.80;;;21.80;99.90;;;;;;5014941;28;20060;-89
2022/06/21 07:44:29;;;;;;;3.78;1.58;;;21.60;99.90;;;;;;5042143;28;20061;-89
2022/06/21 07:47:03;;;;;;;4.97;1.80;;;20.70;99.90;;;;;;5004990;28;20049;-89
2022/06/21 07:49:43;;;;;;;4.75;1.70;;;20.30;99.90;;;;;;5005957;28;20455;-89
2022/06/21 07:52:23;;;;;;;6.60;1.63;;;20.50;99.90;;;;;;5005581;28;20044;-88
2022/06/21 07:54:53;;;;;;;4.93;1.63;;;21.70;99.90;;;;;;5017096;28;20099;-87
2022/06/21 07:57:21;;;;;;;3.70;1.48;;;22.20;99.90;;;;;;5021091;28;20045;-88
2022/06/21 07:59:51;;;;;;;5.40;1.23;;;22.50;99.90;;;;;;4998270;28;20045;-90
2022/06/21 08:08:31;;;;;;;2.75;1.60;;;20.40;99.90;;;;;;5026218;28;20071;-88
2022/06/21 08:11:04;;;;;;;8.60;1.98;;;19.90;99.90;;;;;;5020414;28;20054;-91
2022/06/21 08:13:30;;;;;;;3.35;1.48;;;20.10;99.90;;;;;;5004401;28;20512;-89
2022/06/21 08:16:06;;;;;;;5.45;1.67;;;20.00;99.90;;;;;;5002800;28;20048;-88
2022/06/21 08:18:46;;;;;;;4.50;1.70;;;20.80;99.90;;;;;;5005802;28;20501;-89
2022/06/21 08:21:23;;;;;;;3.63;1.42;;;22.30;99.90;;;;;;5020902;28;20075;-88
2022/06/21 08:23:57;;;;;;;3.17;1.48;;;23.10;99.90;;;;;;5004319;28;20049;-88
2022/06/21 08:26:44;;;;;;;5.88;1.75;;;23.60;99.90;;;;;;5019635;28;20048;-88
2022/06/21 08:29:28;;;;;;;4.57;1.48;;;23.40;99.90;;;;;;5007453;28;20132;-86
2022/06/21 08:31:58;;;;;;;4.47;1.50;;;23.60;99.90;;;;;;5005296;28;20057;-88
2022/06/21 08:34:34;;;;;;;3.88;1.48;;;23.60;99.90;;;;;;5004465;28;20555;-88
2022/06/21 08:37:04;;;;;;;4.15;1.60;;;22.90;99.90;;;;;;5006063;28;20053;-88
2022/06/21 08:39:38;;;;;;;3.33;1.33;;;22.80;99.90;;;;;;5022735;28;20045;-88
2022/06/21 08:42:10;;;;;;;4.70;1.60;;;23.70;99.90;;;;;;5004347;28;20135;-89
2022/06/21 08:48:14;;;;;;;3.75;1.50;;;24.90;99.90;;;;;;5043515;28;20124;-88
2022/06/21 08:51:14;;;;;;;4.03;1.50;;;23.30;99.90;;;;;;5022998;28;20444;-88
2022/06/21 08:53:45;;;;;;;3.50;1.48;;;22.80;99.90;;;;;;5017656;28;20155;-88
2022/06/21 08:56:22;;;;;;;4.65;1.55;;;22.10;99.90;;;;;;5034046;28;20042;-90
2022/06/21 08:59:09;;;;;;;4.15;1.52;;;22.30;99.90;;;;;;5024411;28;20144;-88
2022/06/21 09:01:43;;;;;;;5.18;1.67;;;22.50;99.90;;;;;;5020426;28;20053;-88
2022/06/21 09:04:27;;;;;;;3.22;1.33;;;22.00;99.90;;;;;;5036307;28;20055;-89
2022/06/21 09:07:05;;;;;;;5.28;1.42;;;21.70;99.90;;;;;;5004650;28;20049;-88
2022/06/21 09:09:44;;;;;;;5.10;1.52;;;21.80;99.90;;;;;;5032694;28;20490;-90
2022/06/21 09:12:19;;;;;;;3.30;1.55;;;23.00;99.90;;;;;;5019213;28;20397;-88
2022/06/21 09:14:51;;;;;;;4.00;1.40;;;24.10;99.90;;;;;;5026939;28;20045;-89
2022/06/21 09:18:01;;;;;;;8.77;1.80;;;24.90;99.90;;;;;;5024545;28;20041;-90
2022/06/21 09:20:33;;;;;;;3.85;1.50;;;25.30;99.90;;;;;;5035545;28;20068;-89
2022/06/21 09:23:28;;;;;;;2.58;1.02;;;24.60;99.90;;;;;;5041910;28;20045;-89
2022/06/21 09:26:12;;;;;;;2.95;1.30;;;24.90;99.90;;;;;;5028603;28;20114;-88
2022/06/21 09:28:41;;;;;;;3.85;1.25;;;25.30;99.90;;;;;;5036093;28;20045;-89
2022/06/21 09:31:44;;;;;;;4.90;1.50;;;25.40;99.60;;;;;;5025145;28;20110;-90
2022/06/21 09:34:12;;;;;;;5.63;1.58;;;25.00;99.70;;;;;;5031344;28;20049;-90
2022/06/21 09:36:49;;;;;;;2.35;1.30;;;25.10;99.90;;;;;;5010177;28;20453;-90
2022/06/21 09:39:55;;;;;;;2.85;1.23;;;25.20;98.50;;;;;;5033043;28;20427;-87
2022/06/21 09:42:31;;;;;;;4.03;1.20;;;24.80;99.00;;;;;;4977403;28;20062;-87
2022/06/21 09:45:09;;;;;;;4.43;1.40;;;23.20;99.20;;;;;;5029694;28;20064;-90
2022/06/21 09:47:49;;;;;;;1.70;1.00;;;22.70;99.90;;;;;;5051241;28;20045;-90
2022/06/21 09:50:31;;;;;;;3.55;1.20;;;23.10;99.90;;;;;;5050395;28;20052;-90
2022/06/21 09:53:09;;;;;;;4.00;1.35;;;23.50;99.90;;;;;;5002244;28;20045;-89
2022/06/21 09:55:53;;;;;;;2.17;1.10;;;23.90;99.70;;;;;;5051164;28;20556;-88
2022/06/21 09:58:31;;;;;;;2.78;1.35;;;24.80;99.30;;;;;;5050420;28;20401;-90
2022/06/21 10:01:17;;;;;;;3.45;1.33;;;24.90;99.60;;;;;;5050958;28;20424;-89
2022/06/21 10:03:46;;;;;;;3.50;1.17;;;25.30;99.20;;;;;;5034544;28;20414;-88
2022/06/21 10:06:25;;;;;;;3.22;1.20;;;25.20;99.40;;;;;;5050448;28;20524;-89
2022/06/21 10:09:06;;;;;;;5.45;1.55;;;24.80;99.20;;;;;;5034572;28;20060;-89
2022/06/21 10:11:39;;;;;;;5.32;1.20;;;25.40;99.00;;;;;;5034002;28;20490;-89
2022/06/21 10:14:11;;;;;;;3.47;1.23;;;25.50;99.00;;;;;;5017762;28;20048;-89
2022/06/21 10:17:04;;;;;;;3.08;1.20;;;26.10;98.60;;;;;;5034413;28;20401;-88
2022/06/21 10:19:36;;;;;;;3.42;1.55;;;25.70;97.90;;;;;;5050083;28;20080;-88
2022/06/21 10:22:10;;;;;;;2.47;1.40;;;25.40;98.60;;;;;;5034757;28;20135;-88
2022/06/21 10:25:14;;;;;;;3.70;1.38;;;23.90;98.40;;;;;;5051532;28;20084;-87
2022/06/21 10:28:03;;;;;;;2.42;1.20;;;24.90;97.90;;;;;;5042076;28;20076;-87
2022/06/21 10:30:44;;;;;;;3.70;1.20;;;25.20;98.80;;;;;;5009660;28;20059;-89
2022/06/21 10:33:34;;;;;;;3.20;1.30;;;25.00;98.70;;;;;;5020736;28;20064;-94
2022/06/21 10:36:38;;;;;;;2.78;1.27;;;25.40;97.80;;;;;;5039706;28;20051;-91
2022/06/21 10:39:32;;;;;;;4.05;1.15;;;25.60;98.30;;;;;;5039752;28;20041;-94
2022/06/21 10:42:48;;;;;;;2.60;1.30;;;25.80;97.70;;;;;;5025111;28;20085;-90
2022/06/21 10:45:32;;;;;;;5.05;1.30;;;25.20;97.50;;;;;;5041312;28;20133;-91
2022/06/21 10:48:39;;;;;;;3.63;1.40;;;25.50;98.10;;;;;;5025840;28;20144;-92
2022/06/21 10:51:24;;;;;;;2.05;1.10;;;26.30;97.30;;;;;;5020114;28;20045;-93
2022/06/21 10:54:17;;;;;;;3.60;1.38;;;25.90;98.50;;;;;;5031385;28;20440;-93
2022/06/21 11:02:51;;;;;;;3.38;1.45;;;25.40;97.60;;;;;;5042056;28;20057;-92
2022/06/21 11:05:32;;;;;;;3.38;1.50;;;25.30;97.60;;;;;;5022588;28;20132;-92
2022/06/21 11:08:04;;;;;;;4.78;1.30;;;26.00;97.60;;;;;;5026310;28;20053;-92
2022/06/21 11:10:43;;;;;;;6.65;1.38;;;25.60;97.70;;;;;;5026502;28;20041;-89
2022/06/21 11:13:14;;;;;;;4.95;1.42;;;24.90;97.30;;;;;;5027876;28;20053;-90
2022/06/21 11:16:02;;;;;;;6.28;1.83;;;25.60;97.70;;;;;;5010486;28;20073;-93
2022/06/21 11:18:53;;;;;;;3.83;1.38;;;25.50;98.00;;;;;;5025407;28;20068;-94
2022/06/21 11:21:25;;;;;;;3.50;1.10;;;25.40;96.50;;;;;;5042362;28;20132;-92
2022/06/21 11:23:52;;;;;;;4.00;1.65;;;24.80;97.10;;;;;;5039194;28;20041;-91
2022/06/21 11:26:27;;;;;;;3.25;1.25;;;25.00;97.50;;;;;;5038905;28;20440;-91
2022/06/21 11:29:12;;;;;;;2.45;0.90;;;24.70;97.80;;;;;;5037657;28;20408;-91
2022/06/21 11:31:47;;;;;;;2.33;1.10;;;24.60;97.60;;;;;;5010137;28;20470;-91
2022/06/21 11:34:16;;;;;;;3.55;1.20;;;24.60;98.00;;;;;;5013490;28;20136;-92
2022/06/21 11:36:57;;;;;;;14.75;1.75;;;24.60;98.00;;;;;;5021727;28;20087;-88
2022/06/21 11:39:33;;;;;;;2.80;1.08;;;24.20;98.10;;;;;;5030298;28;20085;-90
2022/06/21 11:42:17;;;;;;;2.40;1.30;;;24.30;97.80;;;;;;5022362;28;20041;-93
2022/06/21 11:45:01;;;;;;;3.30;1.30;;;24.20;97.60;;;;;;5016426;28;20051;-93
2022/06/21 11:47:42;;;;;;;3.78;1.10;;;24.50;97.10;;;;;;5026033;28;20045;-91
2022/06/21 11:50:23;;;;;;;2.60;1.33;;;23.70;97.90;;;;;;5041537;28;20052;-91
2022/06/21 11:53:17;;;;;;;4.30;1.30;;;23.70;98.40;;;;;;5014500;28;20046;-92
2022/06/21 11:55:44;;;;;;;;;;;24.00;98.40;;;;;;5026683;28;20099;-88
2022/06/21 11:58:32;;;;;;;3.30;1.30;;;24.30;98.30;;;;;;5012328;28;19956;-90
2022/06/21 12:01:08;;;;;;;3.47;0.93;;;24.10;97.70;;;;;;5029908;28;20102;-91
2022/06/21 12:03:55;;;;;;;3.80;1.10;;;24.20;98.30;;;;;;5033888;28;20067;-89
2022/06/21 12:06:38;;;;;;;5.32;1.30;;;24.60;98.00;;;;;;5010549;28;20048;-89
2022/06/21 12:09:24;;;;;;;4.25;1.20;;;24.80;97.70;;;;;;5050495;28;20053;-89
2022/06/21 12:12:05;;;;;;;1.58;0.93;;;24.40;97.50;;;;;;5013623;28;20490;-89
2022/06/21 12:14:56;;;;;;;4.75;1.20;;;24.10;98.00;;;;;;5043329;28;20477;-91
2022/06/21 12:17:28;;;;;;;2.92;1.20;;;24.60;97.00;;;;;;4998430;28;20053;-91
2022/06/21 12:19:57;;;;;;;2.88;0.90;;;24.20;97.70;;;;;;5010289;28;20049;-90
2022/06/21 12:22:27;;;;;;;2.33;1.20;;;24.30;97.50;;;;;;4993278;28;20069;-89
2022/06/21 12:24:52;;;;;;;2.10;1.17;;;24.10;97.50;;;;;;5041976;28;20076;-92
2022/06/21 12:27:18;;;;;;;3.33;1.20;;;24.40;97.00;;;;;;5044286;28;20073;-92
2022/06/21 12:29:44;;;;;;;2.53;1.15;;;24.30;97.10;;;;;;5009154;28;20037;-88
2022/06/21 12:32:21;;;;;;;2.00;1.10;;;24.10;97.00;;;;;;5015184;28;20069;-90
2022/06/21 12:34:55;;;;;;;5.70;1.38;;;24.00;97.20;;;;;;5014608;28;20045;-89
2022/06/21 12:37:29;;;;;;;;;;;23.90;97.60;;;;;;5014339;28;20048;-93
2022/06/21 12:39:59;;;;;;;2.58;1.00;;;23.90;98.30;;;;;;5047180;28;19921;-91
2022/06/21 12:42:40;;;;;;;7.03;1.40;;;24.20;97.20;;;;;;5028276;28;20084;-92
2022/06/21 12:45:12;;;;;;;3.22;1.40;;;24.20;97.20;;;;;;5031247;28;20049;-93
2022/06/21 12:48:15;;;;;;;3.72;1.42;;;23.90;96.60;;;;;;5046675;28;20115;-89
2022/06/21 12:50:49;;;;;;;2.65;1.10;;;23.60;97.80;;;;;;5047472;28;20053;-90
2022/06/21 12:53:34;;;;;;;4.55;1.50;;;23.90;96.30;;;;;;5037729;28;20132;-93
2022/06/21 12:56:30;;;;;;;3.40;1.30;;;23.80;96.40;;;;;;5028851;28;20048;-90
2022/06/21 12:59:20;;;;;;;4.40;1.08;;;23.90;96.30;;;;;;5032846;28;20057;-93
2022/06/21 13:01:58;;;;;;;2.70;1.08;;;24.00;97.00;;;;;;5030232;28;20392;-90
2022/06/21 13:04:29;;;;;;;2.72;1.00;;;23.80;96.70;;;;;;5029937;28;20140;-93
2022/06/21 13:07:13;;;;;;;1.65;1.00;;;23.70;96.70;;;;;;5044064;28;20048;-93
2022/06/21 13:09:50;;;;;;;3.97;1.13;;;23.70;97.10;;;;;;5028701;28;20056;-91
2022/06/21 13:12:16;;;;;;;1.27;0.90;;;23.60;97.00;;;;;;5027351;28;20519;-88
2022/06/21 13:15:06;;;;;;;4.28;1.20;;;23.70;96.90;;;;;;5029825;28;20087;-91
2022/06/21 13:18:02;;;;;;;2.45;1.00;;;23.40;97.00;;;;;;5029221;28;20036;-90
2022/06/21 13:20:36;;;;;;;4.43;1.10;;;23.50;98.10;;;;;;5028468;28;20100;-90
2022/06/21 13:23:12;;;;;;;3.03;1.00;;;23.60;98.40;;;;;;5044786;28;20430;-90
2022/06/21 13:26:10;;;;;;;3.63;1.05;;;24.00;97.70;;;;;;5018956;28;20033;-86
2022/06/21 13:28:47;;;;;;;4.50;1.10;;;24.20;98.50;;;;;;4969362;28;20056;-89
2022/06/21 13:31:18;;;;;;;3.58;1.20;;;24.20;98.00;;;;;;5039064;28;20356;-88
2022/06/21 13:33:58;;;;;;;4.82;1.00;;;24.00;98.60;;;;;;5037937;28;20103;-90
2022/06/21 13:36:41;;;;;;;4.22;1.02;;;24.20;98.30;;;;;;5006079;28;20415;-88
2022/06/21 13:39:23;;;;;;;2.10;1.20;;;24.60;98.10;;;;;;5022301;28;20127;-88
2022/06/21 13:45:15;;;;;;;11.27;1.40;;;24.60;97.10;;;;;;5041991;28;20090;-88
2022/06/21 13:47:56;;;;;;;5.35;1.20;;;25.00;97.90;;;;;;5042590;28;20064;-88
2022/06/21 13:50:39;;;;;;;4.63;1.10;;;25.30;96.80;;;;;;5054223;28;20048;-87
2022/06/21 13:53:25;;;;;;;3.25;1.23;;;25.10;97.00;;;;;;5039827;28;20067;-89